Time;durP1;ratioP1;P1;durP2;ratioP2;P2;SDS_P1;SDS_P2;PMS_P1;PMS_P2;Temp;Humidity;BMP_temperature;BMP_pressure;BME280_temperature;BME280_humidity;BME280_pressure;Samples;Min_cycle;Max_cycle;Signal;HPM_P1;HPM_P2
2022/11/17 00:00:29;;;;;;;5.45;3.97;;;7.40;99.90;;;;;;5054689;28;20041;-65
2022/11/17 00:02:55;;;;;;;13.30;7.88;;;7.80;99.90;;;;;;5035897;28;20105;-64
2022/11/17 00:05:21;;;;;;;11.48;8.30;;;8.30;99.90;;;;;;5037107;28;20101;-64
2022/11/17 00:07:48;;;;;;;13.63;7.55;;;7.30;99.90;;;;;;5035926;28;20521;-64
2022/11/17 00:10:15;;;;;;;10.93;6.40;;;8.20;99.90;;;;;;5035956;28;20375;-64
2022/11/17 00:15:26;;;;;;;9.85;6.47;;;8.40;99.90;;;;;;5058315;28;20048;-64
2022/11/17 00:23:22;;;;;;;12.57;8.15;;;7.90;99.90;;;;;;5054491;28;20412;-66
2022/11/17 00:25:48;;;;;;;17.63;8.82;;;8.00;99.90;;;;;;5001615;28;20036;-65
2022/11/17 00:28:13;;;;;;;13.02;7.45;;;7.50;99.90;;;;;;5036894;28;20202;-65
2022/11/17 00:36:07;;;;;;;10.23;6.53;;;8.00;99.90;;;;;;5003981;28;20059;-64
2022/11/17 00:38:33;;;;;;;11.27;7.88;;;7.20;99.90;;;;;;5019360;28;20028;-65
2022/11/17 00:40:59;;;;;;;6.03;4.35;;;7.30;99.90;;;;;;5037777;28;20036;-64
2022/11/17 00:43:24;;;;;;;5.72;4.28;;;8.10;99.90;;;;;;5037166;28;20097;-63
2022/11/17 00:45:50;;;;;;;12.18;6.00;;;7.50;99.90;;;;;;5036746;28;20089;-64
2022/11/17 00:48:16;;;;;;;10.63;6.03;;;8.10;99.90;;;;;;5037804;28;20383;-64
2022/11/17 00:50:41;;;;;;;10.65;6.55;;;8.10;99.90;;;;;;5051984;28;20597;-64
2022/11/17 00:53:07;;;;;;;8.68;6.80;;;7.70;99.90;;;;;;5053986;28;20059;-64
2022/11/17 00:55:33;;;;;;;10.00;6.47;;;7.00;99.90;;;;;;5054086;28;20048;-66
2022/11/17 00:57:58;;;;;;;11.05;7.25;;;7.90;99.90;;;;;;5037765;28;20480;-64
2022/11/17 01:00:24;;;;;;;8.02;5.43;;;8.00;99.90;;;;;;5035906;28;20311;-64
2022/11/17 01:02:50;;;;;;;12.85;7.03;;;6.90;99.90;;;;;;5054740;28;20124;-64
2022/11/17 01:05:16;;;;;;;6.10;4.25;;;8.00;99.90;;;;;;5037642;28;20036;-63
2022/11/17 01:07:41;;;;;;;7.30;6.47;;;7.80;99.90;;;;;;5035003;28;20505;-65
2022/11/17 01:10:07;;;;;;;7.82;4.55;;;7.60;99.90;;;;;;5010355;28;20144;-64
2022/11/17 01:12:33;;;;;;;9.50;5.30;;;7.50;99.90;;;;;;5036793;28;20586;-65
2022/11/17 01:14:59;;;;;;;8.05;5.18;;;7.40;99.90;;;;;;5037510;28;20672;-63
2022/11/17 01:17:24;;;;;;;9.98;6.22;;;7.20;99.90;;;;;;5017848;28;20637;-63
2022/11/17 01:19:50;;;;;;;7.80;4.13;;;7.10;99.90;;;;;;5037470;28;20040;-64
2022/11/17 01:22:16;;;;;;;9.43;5.10;;;7.20;99.90;;;;;;5035892;28;20036;-63
2022/11/17 01:24:42;;;;;;;8.65;4.90;;;7.20;99.90;;;;;;5052903;28;20037;-64
2022/11/17 01:27:08;;;;;;;10.30;5.40;;;7.20;99.90;;;;;;5054490;28;20464;-64
2022/11/17 01:29:34;;;;;;;7.43;4.10;;;7.40;99.90;;;;;;5037831;28;20054;-65
2022/11/17 01:31:59;;;;;;;9.50;5.32;;;7.10;99.90;;;;;;5034637;28;20195;-64
2022/11/17 01:34:25;;;;;;;7.05;4.65;;;8.00;99.90;;;;;;5027441;28;20051;-63
2022/11/17 01:39:35;;;;;;;7.85;4.22;;;7.00;99.90;;;;;;5020358;28;20651;-65
2022/11/17 01:42:12;;;;;;;8.18;4.70;;;7.60;99.90;;;;;;5054693;28;20040;-64
2022/11/17 01:44:52;;;;;;;12.30;6.95;;;8.00;99.90;;;;;;5037144;28;20043;-64
2022/11/17 01:47:32;;;;;;;6.55;4.82;;;7.90;99.90;;;;;;5018949;28;20040;-64
2022/11/17 01:50:21;;;;;;;12.88;6.60;;;7.30;99.90;;;;;;5054164;28;20036;-63
2022/11/17 01:52:49;;;;;;;9.82;5.68;;;7.40;99.90;;;;;;5024698;28;20048;-64
2022/11/17 01:55:16;;;;;;;11.63;6.63;;;7.60;99.90;;;;;;5048799;28;20044;-64
2022/11/17 01:57:53;;;;;;;6.93;4.28;;;7.10;99.90;;;;;;5036508;28;20040;-64
2022/11/17 02:00:19;;;;;;;8.73;5.18;;;7.80;99.90;;;;;;5055118;28;20062;-64
2022/11/17 02:02:46;;;;;;;6.03;4.18;;;7.60;99.90;;;;;;5019586;28;20041;-66
2022/11/17 02:05:21;;;;;;;10.55;5.32;;;7.90;99.90;;;;;;5035739;28;20295;-63
2022/11/17 02:07:49;;;;;;;11.25;5.60;;;8.10;99.90;;;;;;5019146;28;20411;-63
2022/11/17 02:10:15;;;;;;;10.45;5.75;;;7.00;99.90;;;;;;5033056;28;20071;-64
2022/11/17 02:12:42;;;;;;;5.68;3.25;;;8.10;99.90;;;;;;5035718;28;20033;-63
2022/11/17 02:15:09;;;;;;;8.95;5.82;;;7.90;99.90;;;;;;5053609;28;20402;-63
2022/11/17 02:17:38;;;;;;;6.97;4.22;;;7.50;99.90;;;;;;5054528;28;20052;-64
2022/11/17 02:20:07;;;;;;;5.43;3.85;;;7.00;99.90;;;;;;5034357;28;20116;-65
2022/11/17 02:22:39;;;;;;;14.18;8.25;;;7.10;99.90;;;;;;5037010;28;20143;-64
2022/11/17 02:25:26;;;;;;;10.52;5.10;;;8.10;99.90;;;;;;5034769;28;20048;-64
2022/11/17 02:28:23;;;;;;;7.80;4.43;;;7.10;99.90;;;;;;5050477;28;20028;-64
2022/11/17 02:31:12;;;;;;;11.40;6.78;;;7.20;99.90;;;;;;5053894;28;20040;-64
2022/11/17 02:34:04;;;;;;;7.32;3.67;;;8.10;99.90;;;;;;5041585;28;20699;-64
2022/11/17 02:36:33;;;;;;;10.68;7.10;;;7.30;99.90;;;;;;5002051;28;20041;-66
2022/11/17 02:39:17;;;;;;;8.93;6.43;;;7.70;99.90;;;;;;5018368;28;20047;-66
2022/11/17 02:41:53;;;;;;;;;;;7.80;99.90;;;;;;5016212;28;20240;-65
2022/11/17 02:44:23;;;;;;;5.82;4.50;;;7.40;99.90;;;;;;5035755;28;19923;-65
2022/11/17 02:46:54;;;;;;;9.50;6.35;;;7.30;99.90;;;;;;5052986;28;20052;-65
2022/11/17 02:49:26;;;;;;;11.88;7.13;;;7.20;99.90;;;;;;5034679;28;20488;-65
2022/11/17 02:51:57;;;;;;;12.23;5.97;;;7.70;99.90;;;;;;5034595;28;20041;-66
2022/11/17 02:54:25;;;;;;;9.18;5.57;;;7.80;99.90;;;;;;5053620;28;20218;-65
2022/11/17 02:56:51;;;;;;;7.90;5.22;;;7.60;99.90;;;;;;5051069;28;20487;-65
2022/11/17 02:59:26;;;;;;;7.65;4.97;;;7.80;99.90;;;;;;5033178;28;20082;-65
2022/11/17 03:02:15;;;;;;;17.65;8.07;;;7.30;99.90;;;;;;5019212;28;20036;-65
2022/11/17 03:05:21;;;;;;;11.40;5.57;;;7.30;99.90;;;;;;5034423;28;20330;-65
2022/11/17 03:08:08;;;;;;;9.18;4.38;;;7.70;99.90;;;;;;5056269;28;20517;-65
2022/11/17 03:10:48;;;;;;;10.45;6.63;;;7.50;99.90;;;;;;5038513;28;20446;-66
2022/11/17 03:13:16;;;;;;;7.82;4.80;;;7.20;99.90;;;;;;5018876;28;20737;-64
2022/11/17 03:15:42;;;;;;;8.48;5.03;;;7.20;99.90;;;;;;5038378;28;20044;-65
2022/11/17 03:18:11;;;;;;;5.43;4.55;;;7.80;99.90;;;;;;5023625;28;20858;-64
2022/11/17 03:21:09;;;;;;;9.98;5.95;;;7.40;99.90;;;;;;5020283;28;20055;-64
2022/11/17 03:23:48;;;;;;;7.07;4.50;;;7.80;99.90;;;;;;5038017;28;20057;-65
2022/11/17 03:26:19;;;;;;;8.63;4.63;;;7.00;99.90;;;;;;5056169;28;20036;-65
2022/11/17 03:28:46;;;;;;;7.40;6.32;;;7.00;99.90;;;;;;5053034;28;20821;-65
2022/11/17 03:31:14;;;;;;;9.35;5.70;;;7.90;99.90;;;;;;5038684;28;20659;-65
2022/11/17 03:33:42;;;;;;;10.48;5.85;;;7.60;99.90;;;;;;5057068;28;20168;-64
2022/11/17 03:36:14;;;;;;;7.22;5.18;;;7.80;99.90;;;;;;5020146;28;20055;-65
2022/11/17 03:38:57;;;;;;;10.63;7.28;;;7.40;99.90;;;;;;5038235;28;20052;-65
2022/11/17 03:41:27;;;;;;;9.88;7.38;;;6.80;99.90;;;;;;5037409;28;20040;-64
2022/11/17 03:43:56;;;;;;;9.15;6.47;;;7.70;99.90;;;;;;5037022;28;20189;-65
2022/11/17 03:46:23;;;;;;;14.40;6.68;;;6.80;99.90;;;;;;5035134;28;20063;-65
2022/11/17 03:48:58;;;;;;;7.57;5.55;;;7.00;99.90;;;;;;5038616;28;20052;-66
2022/11/17 03:51:27;;;;;;;6.30;5.03;;;7.50;99.90;;;;;;5021115;28;20056;-66
2022/11/17 03:53:54;;;;;;;10.13;7.55;;;7.40;99.90;;;;;;5036634;28;20084;-64
2022/11/17 03:56:38;;;;;;;11.10;5.93;;;6.60;99.90;;;;;;5038927;28;20053;-64
2022/11/17 03:59:15;;;;;;;7.63;5.60;;;7.50;99.90;;;;;;5054403;28;20121;-63
2022/11/17 04:01:41;;;;;;;6.63;5.00;;;6.80;99.90;;;;;;5036320;28;20040;-64
2022/11/17 04:04:11;;;;;;;7.13;4.80;;;6.90;99.90;;;;;;5038182;28;20537;-65
2022/11/17 04:06:37;;;;;;;10.77;7.07;;;7.40;99.90;;;;;;5036522;28;20080;-66
2022/11/17 04:09:02;;;;;;;15.00;7.30;;;6.50;99.90;;;;;;5037093;28;20136;-66
2022/11/17 04:16:56;;;;;;;7.25;4.78;;;7.30;99.90;;;;;;5024062;28;20044;-65
2022/11/17 04:19:22;;;;;;;9.80;6.28;;;6.20;99.90;;;;;;5003580;28;20478;-65
2022/11/17 04:21:47;;;;;;;11.20;7.65;;;7.30;99.90;;;;;;5021118;28;20482;-65
2022/11/17 04:24:13;;;;;;;7.60;5.53;;;6.60;99.90;;;;;;5034829;28;20558;-65
2022/11/17 04:29:23;;;;;;;10.82;7.97;;;8.20;99.90;;;;;;5036848;28;20059;-65
2022/11/17 04:31:49;;;;;;;12.68;6.93;;;4.60;99.90;;;;;;5017680;28;20052;-66
2022/11/17 04:34:15;;;;;;;17.33;8.30;;;7.80;99.90;;;;;;5028428;28;20044;-66
2022/11/17 04:36:44;;;;;;;17.33;11.50;;;8.70;99.90;;;;;;5039059;28;20117;-67
2022/11/17 04:39:12;;;;;;;11.05;7.68;;;8.10;99.90;;;;;;5036218;28;20055;-67
2022/11/17 04:41:55;;;;;;;17.20;10.82;;;8.20;99.90;;;;;;5038789;28;20044;-66
2022/11/17 04:44:26;;;;;;;;;;;4.10;99.90;;;;;;5039119;28;20319;-67
2022/11/17 04:46:52;;;;;;;9.75;5.38;;;4.50;99.90;;;;;;5055414;28;19924;-67
2022/11/17 04:49:19;;;;;;;10.32;7.05;;;8.20;99.90;;;;;;5054492;28;20040;-67
2022/11/17 04:51:45;;;;;;;11.63;8.73;;;6.90;99.90;;;;;;5023047;28;20455;-66
2022/11/17 04:54:13;;;;;;;18.63;9.50;;;8.20;99.90;;;;;;5022181;28;20056;-66
2022/11/17 04:56:39;;;;;;;10.15;7.35;;;6.00;99.90;;;;;;5057268;28;20486;-67
2022/11/17 04:59:05;;;;;;;16.27;9.90;;;5.90;99.90;;;;;;5038506;28;20041;-66
2022/11/17 05:01:32;;;;;;;22.15;10.85;;;6.30;99.90;;;;;;5056764;28;20032;-66
2022/11/17 05:04:00;;;;;;;14.23;7.25;;;5.90;99.90;;;;;;5056107;28;20291;-66
2022/11/17 05:06:31;;;;;;;12.68;7.30;;;6.10;99.90;;;;;;5012371;28;20101;-67
2022/11/17 05:08:57;;;;;;;10.98;7.18;;;6.10;99.90;;;;;;5021605;28;20087;-66
2022/11/17 05:14:11;;;;;;;15.48;6.82;;;5.60;99.90;;;;;;5037853;28;20197;-66
2022/11/17 05:19:23;;;;;;;10.10;5.00;;;6.00;99.90;;;;;;5055121;28;20049;-65
2022/11/17 05:21:49;;;;;;;22.52;9.50;;;5.80;99.90;;;;;;5010268;28;20047;-65
2022/11/17 05:24:15;;;;;;;17.05;8.38;;;5.70;99.90;;;;;;5036553;28;20044;-66
2022/11/17 05:26:42;;;;;;;18.65;9.02;;;5.80;99.90;;;;;;5036524;28;20074;-66
2022/11/17 05:29:08;;;;;;;10.90;5.93;;;6.10;99.90;;;;;;5038094;28;20044;-66
2022/11/17 05:31:34;;;;;;;18.77;7.35;;;5.90;99.90;;;;;;5056212;28;20384;-67
2022/11/17 05:34:01;;;;;;;20.58;8.77;;;5.80;99.90;;;;;;5037989;28;20048;-66
2022/11/17 05:36:27;;;;;;;13.88;8.13;;;6.30;99.90;;;;;;5041316;28;20322;-67
2022/11/17 05:38:54;;;;;;;15.40;6.60;;;6.20;99.90;;;;;;5038541;28;20037;-66
2022/11/17 05:41:20;;;;;;;9.38;5.82;;;6.10;99.90;;;;;;5036996;28;20040;-66
2022/11/17 05:43:47;;;;;;;11.82;7.35;;;5.70;99.90;;;;;;5055253;28;20048;-66
2022/11/17 05:46:12;;;;;;;18.05;8.27;;;5.90;99.90;;;;;;5011918;28;20207;-65
2022/11/17 05:48:39;;;;;;;16.08;8.45;;;6.00;99.90;;;;;;5017572;28;20063;-65
2022/11/17 05:51:05;;;;;;;20.98;10.60;;;6.20;99.90;;;;;;5055118;28;20063;-66
2022/11/17 05:53:31;;;;;;;17.10;9.02;;;6.20;99.90;;;;;;5052217;28;20445;-64
2022/11/17 05:56:32;;;;;;;13.15;6.95;;;6.20;99.90;;;;;;5036049;28;20936;-66
2022/11/17 05:59:40;;;;;;;19.17;10.40;;;5.90;99.90;;;;;;5017582;28;20040;-66
2022/11/17 06:02:16;;;;;;;19.52;9.50;;;5.80;99.90;;;;;;5042118;28;20056;-66
2022/11/17 06:04:43;;;;;;;19.67;10.40;;;5.80;99.90;;;;;;5035047;28;20127;-65
2022/11/17 06:07:09;;;;;;;18.98;9.57;;;6.10;99.90;;;;;;5035249;28;20272;-66
2022/11/17 06:09:39;;;;;;;11.98;6.35;;;5.90;99.90;;;;;;5035861;28;20045;-66
2022/11/17 06:12:04;;;;;;;11.48;6.10;;;5.80;99.90;;;;;;5034709;28;20127;-65
2022/11/17 06:14:30;;;;;;;19.58;10.00;;;5.90;99.90;;;;;;5055293;28;20045;-65
2022/11/17 06:17:02;;;;;;;15.32;8.52;;;5.80;99.90;;;;;;5054583;28;20063;-66
2022/11/17 06:19:33;;;;;;;17.00;8.73;;;5.80;99.90;;;;;;5053231;28;20584;-67
2022/11/17 06:21:59;;;;;;;12.68;7.43;;;6.00;99.90;;;;;;5038363;28;20045;-66
2022/11/17 06:24:25;;;;;;;8.20;5.10;;;5.80;99.90;;;;;;5053163;28;20348;-66
2022/11/17 06:26:51;;;;;;;20.63;10.90;;;5.90;99.90;;;;;;5035054;28;20542;-66
2022/11/17 06:29:17;;;;;;;21.92;10.73;;;5.80;99.90;;;;;;5020449;28;20052;-66
2022/11/17 06:31:44;;;;;;;23.13;9.90;;;5.90;99.90;;;;;;5019921;28;20074;-66
2022/11/17 06:34:10;;;;;;;10.65;4.63;;;5.70;99.90;;;;;;5037284;28;20514;-66
2022/11/17 06:36:36;;;;;;;19.52;9.38;;;5.90;99.90;;;;;;5057265;28;20048;-67
2022/11/17 06:39:02;;;;;;;26.20;10.60;;;5.90;99.90;;;;;;5035711;28;20540;-66
2022/11/17 06:41:28;;;;;;;17.27;9.23;;;5.80;99.90;;;;;;5054706;28;20555;-66
2022/11/17 06:43:53;;;;;;;14.45;8.65;;;5.90;99.90;;;;;;5042609;28;20098;-66
2022/11/17 06:46:19;;;;;;;18.27;8.68;;;5.90;99.90;;;;;;5042657;28;20078;-67
2022/11/17 06:48:45;;;;;;;16.50;7.95;;;6.00;99.90;;;;;;5024854;28;20110;-68
2022/11/17 06:51:10;;;;;;;11.00;6.53;;;5.80;99.90;;;;;;5059414;28;20063;-66
2022/11/17 06:53:36;;;;;;;17.38;7.97;;;5.70;99.90;;;;;;5017683;28;20094;-66
2022/11/17 06:56:06;;;;;;;19.40;9.50;;;7.00;99.90;;;;;;5042444;28;20082;-66
2022/11/17 06:58:32;;;;;;;15.77;7.88;;;6.30;99.90;;;;;;5024891;28;20041;-66
2022/11/17 07:01:07;;;;;;;17.00;7.15;;;6.20;99.90;;;;;;5042335;28;20064;-67
2022/11/17 07:03:34;;;;;;;16.45;9.77;;;6.10;99.90;;;;;;5041381;28;20058;-65
2022/11/17 07:06:01;;;;;;;17.70;11.63;;;6.90;99.90;;;;;;5058768;28;20060;-65
2022/11/17 07:08:27;;;;;;;15.27;8.95;;;6.90;99.90;;;;;;5039611;28;20044;-65
2022/11/17 07:10:55;;;;;;;18.95;11.07;;;6.30;99.90;;;;;;5055086;28;20051;-65
2022/11/17 07:13:23;;;;;;;17.65;9.48;;;7.10;99.90;;;;;;5038171;28;20051;-65
2022/11/17 07:15:49;;;;;;;15.63;8.73;;;6.00;99.90;;;;;;5036797;28;20063;-64
2022/11/17 07:18:18;;;;;;;14.85;8.43;;;6.30;99.90;;;;;;5054378;28;20041;-65
2022/11/17 07:20:46;;;;;;;18.90;9.05;;;5.90;99.90;;;;;;5040354;28;20147;-64
2022/11/17 07:23:12;;;;;;;14.68;8.98;;;6.60;99.90;;;;;;5039722;28;20708;-65
2022/11/17 07:25:38;;;;;;;12.02;7.13;;;6.40;99.90;;;;;;5044533;28;20126;-64
2022/11/17 07:28:04;;;;;;;20.38;9.02;;;6.60;99.90;;;;;;5042600;28;20040;-65
2022/11/17 07:30:30;;;;;;;15.05;7.80;;;5.80;99.90;;;;;;5063734;28;20049;-64
2022/11/17 07:32:59;;;;;;;10.88;6.40;;;5.80;99.90;;;;;;5029282;28;20503;-63
2022/11/17 07:35:25;;;;;;;26.85;9.65;;;5.90;99.90;;;;;;5012082;28;20064;-66
2022/11/17 07:37:56;;;;;;;16.52;7.78;;;6.30;99.90;;;;;;5043265;28;20064;-67
2022/11/17 07:40:21;;;;;;;21.60;8.00;;;6.90;99.90;;;;;;5044351;28;20386;-66
2022/11/17 07:42:48;;;;;;;14.23;6.78;;;5.90;99.90;;;;;;5043322;28;20036;-66
2022/11/17 07:45:14;;;;;;;17.45;7.55;;;6.80;99.90;;;;;;5045363;28;20589;-66
2022/11/17 07:47:40;;;;;;;15.65;6.47;;;7.10;99.90;;;;;;5045840;28;20440;-66
2022/11/17 07:50:05;;;;;;;10.55;5.88;;;6.10;99.90;;;;;;5028253;28;20037;-64
2022/11/17 07:52:31;;;;;;;9.43;5.15;;;5.60;99.90;;;;;;5032777;28;20736;-65
2022/11/17 07:54:57;;;;;;;7.20;3.83;;;6.20;99.90;;;;;;5034538;28;20052;-64
2022/11/17 07:57:24;;;;;;;7.63;4.80;;;6.70;99.90;;;;;;5035594;28;20426;-64
2022/11/17 07:59:50;;;;;;;8.07;5.18;;;6.40;99.90;;;;;;5029838;28;20550;-63
2022/11/17 08:02:15;;;;;;;12.90;7.75;;;5.50;99.90;;;;;;5036245;28;20052;-64
2022/11/17 08:04:41;;;;;;;10.13;5.95;;;6.60;99.90;;;;;;5036604;28;20380;-64
2022/11/17 08:07:07;;;;;;;9.45;6.50;;;5.50;99.90;;;;;;5035803;28;20045;-64
2022/11/17 08:09:32;;;;;;;8.18;4.75;;;5.60;99.90;;;;;;5018305;28;20421;-64
2022/11/17 08:11:58;;;;;;;6.32;3.95;;;6.10;99.90;;;;;;5023636;28;20439;-64
2022/11/17 08:14:24;;;;;;;11.05;6.90;;;5.60;99.90;;;;;;5038768;28;20051;-64
2022/11/17 08:16:49;;;;;;;6.70;4.00;;;5.40;99.90;;;;;;5039396;28;20052;-63
2022/11/17 08:19:15;;;;;;;9.32;4.43;;;6.20;99.90;;;;;;5006129;28;20036;-66
2022/11/17 08:21:41;;;;;;;12.15;6.07;;;5.50;99.90;;;;;;5035471;28;20170;-67
2022/11/17 08:24:07;;;;;;;6.30;4.28;;;5.80;99.90;;;;;;5034010;28;20439;-66
2022/11/17 08:26:32;;;;;;;9.77;5.32;;;5.70;99.90;;;;;;5018814;28;20471;-65
2022/11/17 08:29:00;;;;;;;4.85;3.25;;;5.70;99.90;;;;;;5035611;28;20515;-64
2022/11/17 08:31:26;;;;;;;6.18;4.00;;;5.90;99.90;;;;;;5015592;28;20052;-66
2022/11/17 08:33:52;;;;;;;5.82;3.92;;;5.80;99.90;;;;;;5035906;28;20033;-65
2022/11/17 08:36:17;;;;;;;5.70;4.28;;;6.30;99.90;;;;;;5033453;28;20049;-65
2022/11/17 08:38:43;;;;;;;6.28;4.85;;;6.50;99.90;;;;;;5034335;28;20326;-64
2022/11/17 08:41:09;;;;;;;9.00;4.97;;;5.80;99.90;;;;;;5003429;28;20130;-63
2022/11/17 08:43:34;;;;;;;4.53;3.17;;;6.10;99.90;;;;;;5022471;28;20036;-64
2022/11/17 08:46:03;;;;;;;6.97;4.80;;;6.00;99.90;;;;;;5018473;28;20080;-65
2022/11/17 08:48:30;;;;;;;9.02;4.97;;;6.10;99.90;;;;;;5036911;28;20040;-65
2022/11/17 08:50:56;;;;;;;6.85;3.90;;;5.80;99.90;;;;;;5033339;28;20049;-65
2022/11/17 08:53:22;;;;;;;6.10;4.68;;;5.80;99.90;;;;;;5035038;28;20498;-65
2022/11/17 08:55:49;;;;;;;6.18;3.28;;;6.00;99.90;;;;;;5018354;28;20163;-65
2022/11/17 08:58:15;;;;;;;6.45;3.83;;;6.00;99.90;;;;;;5020268;28;20040;-64
2022/11/17 09:00:41;;;;;;;7.13;4.13;;;5.80;99.90;;;;;;5036717;28;20097;-65
2022/11/17 09:03:10;;;;;;;10.57;4.88;;;5.80;99.90;;;;;;5050430;28;20391;-70
2022/11/17 09:05:39;;;;;;;5.18;3.90;;;6.30;99.90;;;;;;5036533;28;20134;-64
2022/11/17 09:08:05;;;;;;;8.80;5.05;;;5.80;99.90;;;;;;5038147;28;20082;-65
2022/11/17 09:10:31;;;;;;;5.30;3.17;;;6.30;99.90;;;;;;5052907;28;20036;-64
2022/11/17 09:12:57;;;;;;;5.70;4.30;;;6.40;99.90;;;;;;5055475;28;20036;-64
2022/11/17 09:15:23;;;;;;;8.10;5.55;;;6.00;99.90;;;;;;5054929;28;20142;-65
2022/11/17 09:17:49;;;;;;;4.60;2.97;;;6.10;99.90;;;;;;5051118;28;21017;-64
2022/11/17 09:20:16;;;;;;;8.80;4.43;;;5.90;99.90;;;;;;5055773;28;20435;-64
2022/11/17 09:22:42;;;;;;;5.35;3.88;;;6.10;99.90;;;;;;5054909;28;20040;-64
2022/11/17 09:25:08;;;;;;;9.43;4.25;;;5.70;99.90;;;;;;5054342;28;20033;-63
2022/11/17 09:27:34;;;;;;;8.90;4.28;;;5.60;99.90;;;;;;5058524;28;20087;-64
2022/11/17 09:30:00;;;;;;;8.00;4.20;;;5.90;99.90;;;;;;5059250;28;20070;-64
2022/11/17 09:32:26;;;;;;;6.15;4.53;;;5.70;99.90;;;;;;5040492;28;20052;-64
2022/11/17 09:34:52;;;;;;;19.50;9.27;;;6.30;99.90;;;;;;5037984;28;20040;-64
2022/11/17 09:37:17;;;;;;;10.65;5.95;;;6.10;99.90;;;;;;5060723;28;20505;-64
2022/11/17 09:39:43;;;;;;;8.25;4.75;;;6.50;99.90;;;;;;5042754;28;20423;-63
2022/11/17 09:42:14;;;;;;;9.13;5.35;;;6.20;99.90;;;;;;5042444;28;20048;-65
2022/11/17 09:44:50;;;;;;;6.57;4.65;;;5.60;99.90;;;;;;5060793;28;20055;-63
2022/11/17 09:47:32;;;;;;;10.70;6.55;;;5.60;99.90;;;;;;5060802;28;20047;-63
2022/11/17 09:50:14;;;;;;;7.60;4.75;;;5.80;99.90;;;;;;5040043;28;20055;-63
2022/11/17 09:53:03;;;;;;;10.40;5.40;;;6.40;99.90;;;;;;5041961;28;20056;-63
2022/11/17 09:55:36;;;;;;;11.43;8.00;;;5.70;99.90;;;;;;5041749;28;20106;-64
2022/11/17 09:58:13;;;;;;;10.60;5.68;;;5.60;99.90;;;;;;5057970;28;20511;-65
2022/11/17 10:00:42;;;;;;;10.85;7.60;;;6.40;99.90;;;;;;5040853;28;20041;-64
2022/11/17 10:03:25;;;;;;;14.82;6.10;;;6.70;99.90;;;;;;5059266;28;20466;-66
2022/11/17 10:05:52;;;;;;;14.13;7.47;;;5.60;99.90;;;;;;5038273;28;20052;-64
2022/11/17 10:08:28;;;;;;;9.90;5.90;;;5.60;99.90;;;;;;5041087;28;20065;-63
2022/11/17 10:10:54;;;;;;;7.47;6.13;;;6.50;99.90;;;;;;5059104;28;20674;-64
2022/11/17 10:13:25;;;;;;;9.95;7.13;;;5.60;99.90;;;;;;5058608;28;20123;-64
2022/11/17 10:15:56;;;;;;;5.97;4.43;;;5.50;99.90;;;;;;5040765;28;20050;-63
2022/11/17 10:18:22;;;;;;;8.35;5.22;;;6.30;99.90;;;;;;5044569;28;20048;-63
2022/11/17 10:20:47;;;;;;;11.45;6.75;;;5.60;99.90;;;;;;5041847;28;20488;-63
2022/11/17 10:23:17;;;;;;;8.30;5.70;;;6.20;99.90;;;;;;5043704;28;20074;-63
2022/11/17 10:25:56;;;;;;;12.98;6.72;;;5.60;99.90;;;;;;5043853;28;20097;-63
2022/11/17 10:28:28;;;;;;;9.05;6.22;;;5.70;99.90;;;;;;5041607;28;20502;-63
2022/11/17 10:30:59;;;;;;;11.35;6.25;;;6.40;99.90;;;;;;5043989;28;20040;-66
2022/11/17 10:33:43;;;;;;;8.38;5.13;;;5.60;99.90;;;;;;5044753;28;20080;-63
2022/11/17 10:36:20;;;;;;;8.13;4.88;;;5.60;99.90;;;;;;5062195;28;20056;-63
2022/11/17 10:38:51;;;;;;;13.70;6.28;;;6.20;99.90;;;;;;5042145;28;20887;-63
2022/11/17 10:41:21;;;;;;;6.60;4.03;;;6.30;99.90;;;;;;5043232;28;20044;-66
2022/11/17 10:44:01;;;;;;;8.15;4.35;;;5.80;99.90;;;;;;5042495;28;20044;-64
2022/11/17 10:46:27;;;;;;;10.82;5.30;;;6.20;99.90;;;;;;5019125;28;20040;-65
2022/11/17 10:49:03;;;;;;;9.40;6.00;;;5.60;99.90;;;;;;5042303;28;20530;-65
2022/11/17 10:51:32;;;;;;;7.97;4.72;;;5.70;99.90;;;;;;5057785;28;20093;-65
2022/11/17 10:54:20;;;;;;;9.85;6.72;;;5.50;99.90;;;;;;5055887;28;20056;-66
2022/11/17 10:56:53;;;;;;;8.50;6.15;;;6.40;99.90;;;;;;5049996;28;20135;-64
2022/11/17 10:59:20;;;;;;;7.85;5.40;;;6.30;99.90;;;;;;5024093;28;20117;-64
2022/11/17 11:01:49;;;;;;;6.43;4.78;;;6.00;99.90;;;;;;5041558;28;20048;-64
2022/11/17 11:04:40;;;;;;;7.35;4.97;;;6.10;99.90;;;;;;5037210;28;20044;-64
2022/11/17 11:07:19;;;;;;;5.65;4.45;;;6.00;99.90;;;;;;5055537;28;20044;-65
2022/11/17 11:10:08;;;;;;;10.68;7.20;;;6.30;99.90;;;;;;5052933;28;20109;-64
2022/11/17 11:13:00;;;;;;;5.53;4.53;;;5.70;99.90;;;;;;5027739;28;20056;-66
2022/11/17 11:15:32;;;;;;;9.65;6.20;;;5.50;99.90;;;;;;5055077;28;20501;-64
2022/11/17 11:17:58;;;;;;;9.15;6.88;;;6.00;99.90;;;;;;5038012;28;20052;-65
2022/11/17 11:20:39;;;;;;;9.73;6.95;;;5.40;99.90;;;;;;5054565;28;20110;-64
2022/11/17 11:23:13;;;;;;;12.70;6.70;;;6.10;99.90;;;;;;5037541;28;20041;-63
2022/11/17 11:25:50;;;;;;;6.55;5.75;;;5.40;99.90;;;;;;5053373;28;20268;-63
2022/11/17 11:28:34;;;;;;;7.90;5.93;;;5.80;99.90;;;;;;5055386;28;20764;-64
2022/11/17 11:31:38;;;;;;;11.95;5.93;;;5.80;99.90;;;;;;5036935;28;20040;-63
2022/11/17 11:34:42;;;;;;;6.65;5.18;;;6.10;99.90;;;;;;5047949;28;20678;-65
2022/11/17 11:37:13;;;;;;;4.90;3.72;;;5.60;99.90;;;;;;5026268;28;20052;-64
2022/11/17 11:40:01;;;;;;;8.38;5.95;;;5.50;99.90;;;;;;5054883;28;20098;-63
2022/11/17 11:42:42;;;;;;;10.77;6.57;;;5.60;99.90;;;;;;5035932;28;20045;-63
2022/11/17 11:45:27;;;;;;;10.05;5.28;;;5.80;99.90;;;;;;5054418;28;20143;-64
2022/11/17 11:48:04;;;;;;;5.75;4.28;;;5.40;99.90;;;;;;5054855;28;20037;-64
2022/11/17 11:50:34;;;;;;;5.32;4.60;;;5.40;99.90;;;;;;5057951;28;20040;-63
2022/11/17 11:53:24;;;;;;;6.00;4.32;;;5.50;99.90;;;;;;5038643;28;20109;-64
2022/11/17 11:56:16;;;;;;;5.75;4.35;;;5.90;99.90;;;;;;5055455;28;20403;-63
2022/11/17 11:58:54;;;;;;;8.32;5.72;;;5.60;99.90;;;;;;5034875;28;20146;-63
2022/11/17 12:01:22;;;;;;;6.53;4.45;;;6.00;99.90;;;;;;5056157;28;20456;-63
2022/11/17 12:03:55;;;;;;;4.28;2.88;;;6.00;99.90;;;;;;5022907;28;20550;-63
2022/11/17 12:06:40;;;;;;;5.00;4.13;;;5.80;99.90;;;;;;5055235;28;20052;-64
2022/11/17 12:09:15;;;;;;;7.28;6.18;;;5.80;99.90;;;;;;5054532;28;20314;-64
2022/11/17 12:11:59;;;;;;;8.18;7.25;;;6.00;99.90;;;;;;5036157;28;20071;-65
2022/11/17 12:14:27;;;;;;;8.75;6.28;;;5.50;99.90;;;;;;5008421;28;20049;-66
2022/11/17 12:17:06;;;;;;;7.20;5.90;;;6.00;99.90;;;;;;5036020;28;20051;-65
2022/11/17 12:19:49;;;;;;;6.00;4.38;;;5.50;99.90;;;;;;5037835;28;20040;-66
2022/11/17 12:22:32;;;;;;;11.67;6.43;;;5.80;99.90;;;;;;5038463;28;20037;-66
2022/11/17 12:25:16;;;;;;;6.40;5.22;;;6.10;99.90;;;;;;5018088;28;20048;-66
2022/11/17 12:27:45;;;;;;;8.48;6.15;;;6.20;99.90;;;;;;5033643;28;20068;-66
2022/11/17 12:30:33;;;;;;;10.38;7.10;;;6.00;99.90;;;;;;5036886;28;20048;-66
2022/11/17 12:33:00;;;;;;;7.97;6.20;;;6.20;99.90;;;;;;5037592;28;20152;-66
2022/11/17 12:35:31;;;;;;;8.80;7.28;;;5.90;99.90;;;;;;5036957;28;20048;-65
2022/11/17 12:38:15;;;;;;;9.93;6.88;;;5.80;99.90;;;;;;5036205;28;20045;-64
2022/11/17 12:40:46;;;;;;;8.50;5.32;;;5.60;99.90;;;;;;5034879;28;20211;-64
2022/11/17 12:43:15;;;;;;;7.13;5.57;;;6.50;99.90;;;;;;5054960;28;20046;-65
2022/11/17 12:46:02;;;;;;;7.32;4.50;;;5.60;99.90;;;;;;5036303;28;20044;-65
2022/11/17 12:48:32;;;;;;;7.28;4.68;;;6.40;99.90;;;;;;5054055;28;20044;-66
2022/11/17 12:51:20;;;;;;;6.38;4.53;;;6.20;99.90;;;;;;5056392;28;20063;-66
2022/11/17 12:54:13;;;;;;;7.20;5.93;;;6.30;99.90;;;;;;5037825;28;20036;-66
2022/11/17 12:56:54;;;;;;;7.78;4.90;;;5.90;99.90;;;;;;5037141;28;20133;-64
2022/11/17 12:59:38;;;;;;;5.07;3.95;;;6.40;99.90;;;;;;5052314;28;20048;-65
2022/11/17 13:02:20;;;;;;;7.00;5.43;;;6.10;99.90;;;;;;5035067;28;20047;-65
2022/11/17 13:05:00;;;;;;;7.50;6.13;;;6.00;99.90;;;;;;5022643;28;20127;-64
2022/11/17 13:07:26;;;;;;;3.70;2.47;;;6.60;99.90;;;;;;5055511;28;20125;-65
2022/11/17 13:09:55;;;;;;;4.03;3.38;;;6.30;99.90;;;;;;5016378;28;20044;-64
2022/11/17 13:12:26;;;;;;;3.22;2.92;;;5.80;99.90;;;;;;5020065;28;20055;-65
2022/11/17 13:14:54;;;;;;;6.78;6.05;;;6.00;99.90;;;;;;5035459;28;20060;-65
2022/11/17 13:17:31;;;;;;;5.30;4.65;;;5.70;99.90;;;;;;5033197;28;20842;-66
2022/11/17 13:20:00;;;;;;;3.53;3.17;;;6.10;99.90;;;;;;5036534;28;20045;-65
2022/11/17 13:22:25;;;;;;;10.40;4.50;;;6.40;99.90;;;;;;5036639;28;20048;-66
2022/11/17 13:24:52;;;;;;;9.43;8.52;;;5.70;99.90;;;;;;5017944;28;20711;-66
2022/11/17 13:27:28;;;;;;;6.30;5.70;;;6.40;99.90;;;;;;5051860;28;20041;-67
2022/11/17 13:30:28;;;;;;;14.23;12.15;;;5.90;99.90;;;;;;5035250;28;20510;-67
2022/11/17 13:32:55;;;;;;;5.80;4.38;;;6.60;99.90;;;;;;5050585;28;20043;-66
2022/11/17 13:35:27;;;;;;;7.05;6.10;;;6.60;99.90;;;;;;5004714;28;20383;-66
2022/11/17 13:38:04;;;;;;;5.57;4.65;;;6.20;99.90;;;;;;5037174;28;20076;-66
2022/11/17 13:40:33;;;;;;;3.47;3.15;;;5.90;99.90;;;;;;5034223;28;20127;-64
2022/11/17 13:43:01;;;;;;;5.00;2.72;;;5.80;99.90;;;;;;5059032;28;20136;-65